Big Bear Station Historical Data
 
Daily Summary for October 21, 2019 Units:  English    Metric   Both
Next Day »
Daily Weekly Monthly Yearly Custom
  Current: High: Low: Average:
Temperature: 66.4 °F 66.4 °F 34.3 °F 44.2 °F
Dew Point: 30.5 °F 36.1 °F 26.7 °F 31 °F
Humidity: 26% 87% 26% 64%
Wind Speed: 2.2mph 6.3mph 0mph 1mph
Wind Gust: -999mph -999mph - -
WindNW - - West
Pressure: 23.66 in 23.67 in 23.59 in -
Precipitation: 0 in      
Historical Graphs
 
 
Tabular Data for October 21, 2019
Time Temperature Dew Point Pressure Wind Wind Speed Wind Gust Humidity Rainfall Rate (Hourly)
00:07 40.5 °F 27.3 °F 23.60 in Calm   -999 mph 59% 0.00 in
00:22 40.3 °F 26.7 °F 23.60 in Calm   -999 mph 58% 0.00 in
00:37 39.9 °F 26.7 °F 23.60 in Calm   -999 mph 59% 0.00 in
00:53 39.6 °F 28 °F 23.59 in Calm   -999 mph 63% 0.00 in
01:08 39.2 °F 28.4 °F 23.60 in Calm   -999 mph 65% 0.00 in
01:23 38.5 °F 29.9 °F 23.60 in Calm   -999 mph 71% 0.00 in
01:38 38.1 °F 29.9 °F 23.60 in Calm   -999 mph 72% 0.00 in
01:54 37.8 °F 28.9 °F 23.61 in Calm   -999 mph 70% 0.00 in
02:09 37.2 °F 28 °F 23.60 in Calm   -999 mph 69% 0.00 in
02:24 36.9 °F 27.3 °F 23.60 in Calm   -999 mph 68% 0.00 in
02:39 36.9 °F 27.3 °F 23.60 in Calm   -999 mph 68% 0.00 in
02:54 36.7 °F 28.5 °F 23.60 in Calm   -999 mph 72% 0.00 in
03:10 36.5 °F 29.3 °F 23.60 in Calm   -999 mph 75% 0.00 in
03:25 36.5 °F 29.3 °F 23.60 in Calm   -999 mph 75% 0.00 in
03:40 36.5 °F 29.3 °F 23.60 in Calm   -999 mph 75% 0.00 in
03:55 36.1 °F 29.3 °F 23.60 in Calm   -999 mph 76% 0.00 in
04:10 36 °F 28.8 °F 23.59 in Calm   -999 mph 75% 0.00 in
04:26 36.1 °F 28.9 °F 23.59 in Calm   -999 mph 75% 0.00 in
04:41 35.6 °F 29.4 °F 23.59 in Calm   -999 mph 78% 0.00 in
04:56 35.4 °F 29.8 °F 23.60 in Calm   -999 mph 80% 0.00 in
05:11 35.4 °F 29.8 °F 23.60 in Calm   -999 mph 80% 0.00 in
05:27 35.1 °F 29.2 °F 23.60 in Calm   -999 mph 79% 0.00 in
05:42 34.9 °F 30 °F 23.61 in Calm   -999 mph 82% 0.00 in
05:57 34.9 °F 30 °F 23.61 in Calm   -999 mph 82% 0.00 in
06:12 34.9 °F 30.9 °F 23.61 in Calm   -999 mph 85% 0.00 in
06:27 34.7 °F 30.1 °F 23.61 in Calm   -999 mph 83% 0.00 in
06:42 34.7 °F 30.4 °F 23.61 in Calm   -999 mph 84% 0.00 in
06:58 34.5 °F 30.2 °F 23.62 in Calm   -999 mph 84% 0.00 in
07:13 34.7 °F 30.7 °F 23.62 in Calm   -999 mph 85% 0.00 in
07:28 34.9 °F 31.1 °F 23.63 in Calm   -999 mph 86% 0.00 in
07:43 34.5 °F 31 °F 23.63 in Calm   -999 mph 87% 0.00 in
07:59 34.3 °F 30.8 °F 23.63 in Calm   -999 mph 87% 0.00 in
08:14 36.1 °F 31.4 °F 23.64 in Calm   -999 mph 83% 0.00 in
08:29 37 °F 31.4 °F 23.65 in Calm   -999 mph 80% 0.00 in
08:44 37.6 °F 32.3 °F 23.66 in Calm   -999 mph 81% 0.00 in
09:01 38.8 °F 31.9 °F 23.66 in Calm   -999 mph 76% 0.00 in
09:16 41.7 °F 31.9 °F 23.66 in Calm   -999 mph 68% 0.00 in
09:32 43.7 °F 33.5 °F 23.66 in Calm   -999 mph 67% 0.00 in
09:47 52.2 °F 32.6 °F 23.66 in Calm   -999 mph 47% 0.00 in
10:02 53.2 °F 32.9 °F 23.66 in WNW 3.2 mph -999 mph 46% 0.00 in
10:18 57 °F 32.9 °F 23.66 in North 2.7 mph -999 mph 40% 0.00 in
10:33 58.5 °F 34.3 °F 23.67 in WNW 6.3 mph -999 mph 40% 0.00 in
10:48 59.7 °F 34.7 °F 23.67 in South 3.7 mph -999 mph 39% 0.00 in
11:03 60.6 °F 35.5 °F 23.67 in NW 4.2 mph -999 mph 39% 0.00 in
11:18 60.6 °F 36.1 °F 23.67 in NNW 3.7 mph -999 mph 40% 0.00 in
11:34 62.6 °F 36 °F 23.67 in West 4.2 mph -999 mph 37% 0.00 in
11:49 62.8 °F 36.1 °F 23.67 in WNW 3.2 mph -999 mph 37% 0.00 in
12:05 63.1 °F 35.7 °F 23.67 in WNW 4.7 mph -999 mph 36% 0.00 in
12:20 64.2 °F 34.5 °F 23.67 in NW 4.2 mph -999 mph 33% 0.00 in
12:35 65.5 °F 34.9 °F 23.67 in West 1.7 mph -999 mph 32% 0.00 in
12:51 65.7 °F 35.8 °F 23.67 in NNW 4.7 mph -999 mph 33% 0.00 in
13:06 66 °F 32.8 °F 23.67 in ENE 1.1 mph -999 mph 29% 0.00 in
13:21 66.2 °F 33 °F 23.66 in ENE 3.7 mph -999 mph 29% 0.00 in
13:36 66.4 °F 30.5 °F 23.66 in NW 2.2 mph -999 mph 26% 0.00 in
Big Bear CA Weather